sensor_id;sensor_type;location;lat;lon;timestamp;temperature;humidity
37158;DHT22;23050;51.776;22.638;2023-03-17T00:00:47;-2.40;99.90
37158;DHT22;23050;51.776;22.638;2023-03-17T00:03:24;-2.40;99.90
37158;DHT22;23050;51.776;22.638;2023-03-17T00:05:51;-2.40;99.90
37158;DHT22;23050;51.776;22.638;2023-03-17T00:08:36;-2.40;99.90
37158;DHT22;23050;51.776;22.638;2023-03-17T00:11:02;-2.50;99.90
37158;DHT22;23050;51.776;22.638;2023-03-17T00:13:28;-2.50;99.90
37158;DHT22;23050;51.776;22.638;2023-03-17T00:15:59;-2.50;99.90
37158;DHT22;23050;51.776;22.638;2023-03-17T00:18:26;-2.50;99.90
37158;DHT22;23050;51.776;22.638;2023-03-17T00:20:52;-2.50;99.90
37158;DHT22;23050;51.776;22.638;2023-03-17T00:23:19;-2.50;99.90
37158;DHT22;23050;51.776;22.638;2023-03-17T00:25:46;-2.60;99.90
37158;DHT22;23050;51.776;22.638;2023-03-17T00:28:16;-2.60;99.90
37158;DHT22;23050;51.776;22.638;2023-03-17T00:30:42;-2.60;99.90
37158;DHT22;23050;51.776;22.638;2023-03-17T00:33:09;-2.70;99.90
37158;DHT22;23050;51.776;22.638;2023-03-17T00:35:36;-2.70;99.90
37158;DHT22;23050;51.776;22.638;2023-03-17T00:38:01;-2.70;99.90
37158;DHT22;23050;51.776;22.638;2023-03-17T00:40:29;-2.80;99.90
37158;DHT22;23050;51.776;22.638;2023-03-17T00:42:56;-2.80;99.90
37158;DHT22;23050;51.776;22.638;2023-03-17T00:45:23;-2.80;99.90
37158;DHT22;23050;51.776;22.638;2023-03-17T00:47:51;-2.70;99.90
37158;DHT22;23050;51.776;22.638;2023-03-17T00:50:20;-2.70;99.90
37158;DHT22;23050;51.776;22.638;2023-03-17T00:52:50;-2.70;99.90
37158;DHT22;23050;51.776;22.638;2023-03-17T00:55:16;-2.70;99.90
37158;DHT22;23050;51.776;22.638;2023-03-17T00:57:42;-2.80;99.90
37158;DHT22;23050;51.776;22.638;2023-03-17T01:00:28;-2.80;99.90
37158;DHT22;23050;51.776;22.638;2023-03-17T01:02:55;-2.80;99.90
37158;DHT22;23050;51.776;22.638;2023-03-17T01:05:23;-2.80;99.90
37158;DHT22;23050;51.776;22.638;2023-03-17T01:07:55;-2.80;99.90
37158;DHT22;23050;51.776;22.638;2023-03-17T01:10:24;-2.80;99.90
37158;DHT22;23050;51.776;22.638;2023-03-17T01:12:55;-2.80;99.90
37158;DHT22;23050;51.776;22.638;2023-03-17T01:15:23;-2.80;99.90
37158;DHT22;23050;51.776;22.638;2023-03-17T01:17:50;-2.80;99.90
37158;DHT22;23050;51.776;22.638;2023-03-17T01:20:20;-2.80;99.90
37158;DHT22;23050;51.776;22.638;2023-03-17T01:22:47;-2.80;99.90
37158;DHT22;23050;51.776;22.638;2023-03-17T01:25:13;-2.80;99.90
37158;DHT22;23050;51.776;22.638;2023-03-17T01:27:40;-2.80;99.90
37158;DHT22;23050;51.776;22.638;2023-03-17T01:30:09;-2.90;99.90
37158;DHT22;23050;51.776;22.638;2023-03-17T01:32:38;-2.90;99.90
37158;DHT22;23050;51.776;22.638;2023-03-17T01:35:04;-2.90;99.90
37158;DHT22;23050;51.776;22.638;2023-03-17T01:37:31;-2.90;99.90
37158;DHT22;23050;51.776;22.638;2023-03-17T01:39:56;-2.90;99.90
37158;DHT22;23050;51.776;22.638;2023-03-17T01:42:22;-2.90;99.90
37158;DHT22;23050;51.776;22.638;2023-03-17T01:45:02;-2.90;99.90
37158;DHT22;23050;51.776;22.638;2023-03-17T01:47:29;-2.90;99.90
37158;DHT22;23050;51.776;22.638;2023-03-17T01:50:07;-2.90;99.90
37158;DHT22;23050;51.776;22.638;2023-03-17T01:52:35;-2.90;99.90
37158;DHT22;23050;51.776;22.638;2023-03-17T01:55:07;-2.90;99.90
37158;DHT22;23050;51.776;22.638;2023-03-17T01:57:45;-2.90;99.90
37158;DHT22;23050;51.776;22.638;2023-03-17T02:00:17;-3.00;99.90
37158;DHT22;23050;51.776;22.638;2023-03-17T02:02:47;-3.00;99.90
37158;DHT22;23050;51.776;22.638;2023-03-17T02:05:17;-3.00;99.90
37158;DHT22;23050;51.776;22.638;2023-03-17T02:07:44;-3.00;99.90
37158;DHT22;23050;51.776;22.638;2023-03-17T02:10:11;-3.10;99.90
37158;DHT22;23050;51.776;22.638;2023-03-17T02:12:39;-3.10;99.90
37158;DHT22;23050;51.776;22.638;2023-03-17T02:15:06;-3.10;99.90
37158;DHT22;23050;51.776;22.638;2023-03-17T02:17:32;-3.20;99.90
37158;DHT22;23050;51.776;22.638;2023-03-17T02:22:48;-3.20;99.90
37158;DHT22;23050;51.776;22.638;2023-03-17T02:25:17;-3.10;99.90
37158;DHT22;23050;51.776;22.638;2023-03-17T02:27:47;-3.10;99.90
37158;DHT22;23050;51.776;22.638;2023-03-17T02:30:18;-3.10;99.90
37158;DHT22;23050;51.776;22.638;2023-03-17T02:32:43;-3.10;99.90
37158;DHT22;23050;51.776;22.638;2023-03-17T02:35:09;-3.10;99.90
37158;DHT22;23050;51.776;22.638;2023-03-17T02:37:35;-3.10;99.90
37158;DHT22;23050;51.776;22.638;2023-03-17T02:40:01;-3.10;99.90
37158;DHT22;23050;51.776;22.638;2023-03-17T02:42:27;-3.20;99.90
37158;DHT22;23050;51.776;22.638;2023-03-17T02:44:53;-3.20;99.90
37158;DHT22;23050;51.776;22.638;2023-03-17T02:47:19;-3.20;99.90
37158;DHT22;23050;51.776;22.638;2023-03-17T02:49:46;-3.30;99.90
37158;DHT22;23050;51.776;22.638;2023-03-17T02:52:11;-3.30;99.90
37158;DHT22;23050;51.776;22.638;2023-03-17T02:54:37;-3.30;99.90
37158;DHT22;23050;51.776;22.638;2023-03-17T02:57:03;-3.30;99.90
37158;DHT22;23050;51.776;22.638;2023-03-17T02:59:29;-3.30;99.90
37158;DHT22;23050;51.776;22.638;2023-03-17T03:01:55;-3.30;99.90
37158;DHT22;23050;51.776;22.638;2023-03-17T03:04:21;-3.30;99.90
37158;DHT22;23050;51.776;22.638;2023-03-17T03:06:48;-3.40;99.90
37158;DHT22;23050;51.776;22.638;2023-03-17T03:09:14;-3.40;99.90
37158;DHT22;23050;51.776;22.638;2023-03-17T03:11:42;-3.40;99.90
37158;DHT22;23050;51.776;22.638;2023-03-17T03:14:09;-3.40;99.90
37158;DHT22;23050;51.776;22.638;2023-03-17T03:16:34;-3.40;99.90
37158;DHT22;23050;51.776;22.638;2023-03-17T03:19:00;-3.40;99.90
37158;DHT22;23050;51.776;22.638;2023-03-17T03:21:26;-3.30;99.90
37158;DHT22;23050;51.776;22.638;2023-03-17T03:23:51;-3.30;99.90
37158;DHT22;23050;51.776;22.638;2023-03-17T03:26:17;-3.40;99.90
37158;DHT22;23050;51.776;22.638;2023-03-17T03:28:43;-3.40;99.90
37158;DHT22;23050;51.776;22.638;2023-03-17T03:31:09;-3.40;99.90
37158;DHT22;23050;51.776;22.638;2023-03-17T03:33:35;-3.40;99.90
37158;DHT22;23050;51.776;22.638;2023-03-17T03:36:01;-3.40;99.90
37158;DHT22;23050;51.776;22.638;2023-03-17T03:38:27;-3.40;99.90
37158;DHT22;23050;51.776;22.638;2023-03-17T03:40:53;-3.50;99.90
37158;DHT22;23050;51.776;22.638;2023-03-17T03:43:19;-3.50;99.90
37158;DHT22;23050;51.776;22.638;2023-03-17T03:45:44;-3.50;99.90
37158;DHT22;23050;51.776;22.638;2023-03-17T03:48:11;-3.50;99.90
37158;DHT22;23050;51.776;22.638;2023-03-17T03:50:36;-3.60;99.90
37158;DHT22;23050;51.776;22.638;2023-03-17T03:53:02;-3.50;99.90
37158;DHT22;23050;51.776;22.638;2023-03-17T03:55:28;-3.60;99.90
37158;DHT22;23050;51.776;22.638;2023-03-17T03:57:53;-3.60;99.90
37158;DHT22;23050;51.776;22.638;2023-03-17T04:00:19;-3.60;99.90
37158;DHT22;23050;51.776;22.638;2023-03-17T04:02:45;-3.60;99.90
37158;DHT22;23050;51.776;22.638;2023-03-17T04:05:12;-3.60;99.90
37158;DHT22;23050;51.776;22.638;2023-03-17T04:07:39;-3.50;99.90
37158;DHT22;23050;51.776;22.638;2023-03-17T04:10:05;-3.60;99.90
37158;DHT22;23050;51.776;22.638;2023-03-17T04:12:31;-3.60;99.90
37158;DHT22;23050;51.776;22.638;2023-03-17T04:14:57;-3.60;99.90
37158;DHT22;23050;51.776;22.638;2023-03-17T04:17:22;-3.60;99.90
37158;DHT22;23050;51.776;22.638;2023-03-17T04:19:48;-3.60;99.90
37158;DHT22;23050;51.776;22.638;2023-03-17T04:22:13;-3.60;99.90
37158;DHT22;23050;51.776;22.638;2023-03-17T04:24:39;-3.70;99.90
37158;DHT22;23050;51.776;22.638;2023-03-17T04:27:05;-3.70;99.90
37158;DHT22;23050;51.776;22.638;2023-03-17T04:29:32;-3.70;99.90
37158;DHT22;23050;51.776;22.638;2023-03-17T04:31:58;-3.70;99.90
37158;DHT22;23050;51.776;22.638;2023-03-17T04:34:24;-3.70;99.90
37158;DHT22;23050;51.776;22.638;2023-03-17T04:36:49;-3.70;99.90
37158;DHT22;23050;51.776;22.638;2023-03-17T04:39:15;-3.70;99.90
37158;DHT22;23050;51.776;22.638;2023-03-17T04:41:41;-3.70;99.90
37158;DHT22;23050;51.776;22.638;2023-03-17T04:44:07;-3.70;99.90
37158;DHT22;23050;51.776;22.638;2023-03-17T04:46:33;-3.60;99.90
37158;DHT22;23050;51.776;22.638;2023-03-17T04:48:59;-3.50;99.90
37158;DHT22;23050;51.776;22.638;2023-03-17T04:51:25;-3.50;99.90
37158;DHT22;23050;51.776;22.638;2023-03-17T04:53:51;-3.50;99.90
37158;DHT22;23050;51.776;22.638;2023-03-17T04:56:17;-3.50;99.90
37158;DHT22;23050;51.776;22.638;2023-03-17T04:58:43;-3.50;99.90
37158;DHT22;23050;51.776;22.638;2023-03-17T05:01:09;-3.50;99.90
37158;DHT22;23050;51.776;22.638;2023-03-17T05:03:34;-3.40;99.90
37158;DHT22;23050;51.776;22.638;2023-03-17T05:06:01;-3.30;99.90
37158;DHT22;23050;51.776;22.638;2023-03-17T05:08:27;-3.20;99.90
37158;DHT22;23050;51.776;22.638;2023-03-17T05:10:54;-3.00;99.90
37158;DHT22;23050;51.776;22.638;2023-03-17T05:13:21;-2.70;99.90
37158;DHT22;23050;51.776;22.638;2023-03-17T05:15:47;-2.30;99.90
37158;DHT22;23050;51.776;22.638;2023-03-17T05:18:13;-1.90;99.90
37158;DHT22;23050;51.776;22.638;2023-03-17T05:20:38;-1.40;99.90
37158;DHT22;23050;51.776;22.638;2023-03-17T05:23:04;-1.40;99.90
37158;DHT22;23050;51.776;22.638;2023-03-17T05:25:29;-1.40;99.90
37158;DHT22;23050;51.776;22.638;2023-03-17T05:27:55;-1.20;99.90
37158;DHT22;23050;51.776;22.638;2023-03-17T05:30:20;-0.80;99.90
37158;DHT22;23050;51.776;22.638;2023-03-17T05:32:46;-0.40;99.90
37158;DHT22;23050;51.776;22.638;2023-03-17T05:35:12;0.10;99.90
37158;DHT22;23050;51.776;22.638;2023-03-17T05:37:38;0.50;99.90
37158;DHT22;23050;51.776;22.638;2023-03-17T05:40:04;0.60;99.90
37158;DHT22;23050;51.776;22.638;2023-03-17T05:42:30;1.10;99.90
37158;DHT22;23050;51.776;22.638;2023-03-17T05:44:55;1.80;99.90
37158;DHT22;23050;51.776;22.638;2023-03-17T05:47:21;2.80;99.90
37158;DHT22;23050;51.776;22.638;2023-03-17T05:49:47;3.70;99.90
37158;DHT22;23050;51.776;22.638;2023-03-17T05:52:13;4.50;99.90
37158;DHT22;23050;51.776;22.638;2023-03-17T05:54:39;5.40;98.20
37158;DHT22;23050;51.776;22.638;2023-03-17T05:57:05;6.30;86.00
37158;DHT22;23050;51.776;22.638;2023-03-17T05:59:30;6.90;55.80
37158;DHT22;23050;51.776;22.638;2023-03-17T06:01:56;6.90;1.00
37158;DHT22;23050;51.776;22.638;2023-03-17T06:04:24;7.40;1.00
37158;DHT22;23050;51.776;22.638;2023-03-17T06:06:54;8.10;1.00
37158;DHT22;23050;51.776;22.638;2023-03-17T06:09:19;8.30;1.00
37158;DHT22;23050;51.776;22.638;2023-03-17T06:11:46;7.90;1.00
37158;DHT22;23050;51.776;22.638;2023-03-17T06:14:15;7.10;1.00
37158;DHT22;23050;51.776;22.638;2023-03-17T06:16:40;6.70;1.00
37158;DHT22;23050;51.776;22.638;2023-03-17T06:19:06;6.80;1.00
37158;DHT22;23050;51.776;22.638;2023-03-17T06:21:32;6.50;1.00
37158;DHT22;23050;51.776;22.638;2023-03-17T06:23:57;5.90;1.00
37158;DHT22;23050;51.776;22.638;2023-03-17T06:26:23;5.60;22.80
37158;DHT22;23050;51.776;22.638;2023-03-17T06:28:48;5.30;40.50
37158;DHT22;23050;51.776;22.638;2023-03-17T06:31:14;5.00;61.30
37158;DHT22;23050;51.776;22.638;2023-03-17T06:33:39;5.40;73.30
37158;DHT22;23050;51.776;22.638;2023-03-17T06:36:05;6.30;72.80
37158;DHT22;23050;51.776;22.638;2023-03-17T06:38:32;6.50;35.20
37158;DHT22;23050;51.776;22.638;2023-03-17T06:40:57;6.20;28.50
37158;DHT22;23050;51.776;22.638;2023-03-17T06:43:23;5.50;39.60
37158;DHT22;23050;51.776;22.638;2023-03-17T06:45:50;4.70;64.00
37158;DHT22;23050;51.776;22.638;2023-03-17T06:48:17;3.90;87.50
37158;DHT22;23050;51.776;22.638;2023-03-17T06:50:42;3.60;96.60
37158;DHT22;23050;51.776;22.638;2023-03-17T06:53:08;3.30;99.90
37158;DHT22;23050;51.776;22.638;2023-03-17T06:55:33;3.40;99.90
37158;DHT22;23050;51.776;22.638;2023-03-17T06:57:59;3.20;99.90
37158;DHT22;23050;51.776;22.638;2023-03-17T07:00:26;3.20;99.90
37158;DHT22;23050;51.776;22.638;2023-03-17T07:02:52;3.50;99.90
37158;DHT22;23050;51.776;22.638;2023-03-17T07:05:18;3.50;99.90
37158;DHT22;23050;51.776;22.638;2023-03-17T07:07:43;3.70;99.90
37158;DHT22;23050;51.776;22.638;2023-03-17T07:10:09;3.60;99.90
37158;DHT22;23050;51.776;22.638;2023-03-17T07:12:36;3.70;99.90
37158;DHT22;23050;51.776;22.638;2023-03-17T07:15:02;3.80;99.90
37158;DHT22;23050;51.776;22.638;2023-03-17T07:17:28;3.90;99.90
37158;DHT22;23050;51.776;22.638;2023-03-17T07:19:54;4.30;97.90
37158;DHT22;23050;51.776;22.638;2023-03-17T07:22:20;4.10;96.00
37158;DHT22;23050;51.776;22.638;2023-03-17T07:24:46;4.00;96.90
37158;DHT22;23050;51.776;22.638;2023-03-17T07:27:14;4.10;95.90
37158;DHT22;23050;51.776;22.638;2023-03-17T07:29:40;4.10;95.80
37158;DHT22;23050;51.776;22.638;2023-03-17T07:32:06;4.00;96.50
37158;DHT22;23050;51.776;22.638;2023-03-17T07:34:34;3.90;98.70
37158;DHT22;23050;51.776;22.638;2023-03-17T07:37:00;3.80;98.80
37158;DHT22;23050;51.776;22.638;2023-03-17T07:39:26;4.00;99.60
37158;DHT22;23050;51.776;22.638;2023-03-17T07:41:52;4.20;98.30
37158;DHT22;23050;51.776;22.638;2023-03-17T07:44:20;4.20;98.10
37158;DHT22;23050;51.776;22.638;2023-03-17T07:46:47;4.30;98.30
37158;DHT22;23050;51.776;22.638;2023-03-17T07:49:13;4.30;98.00
37158;DHT22;23050;51.776;22.638;2023-03-17T07:51:38;4.50;99.90
37158;DHT22;23050;51.776;22.638;2023-03-17T07:54:07;4.70;97.20
37158;DHT22;23050;51.776;22.638;2023-03-17T07:56:34;4.80;98.00
37158;DHT22;23050;51.776;22.638;2023-03-17T07:59:00;5.00;97.80
37158;DHT22;23050;51.776;22.638;2023-03-17T08:01:26;5.20;96.90
37158;DHT22;23050;51.776;22.638;2023-03-17T08:03:53;5.40;94.80
37158;DHT22;23050;51.776;22.638;2023-03-17T08:06:19;5.50;92.90
37158;DHT22;23050;51.776;22.638;2023-03-17T08:08:46;5.70;91.50
37158;DHT22;23050;51.776;22.638;2023-03-17T08:11:13;5.90;91.40
37158;DHT22;23050;51.776;22.638;2023-03-17T08:13:38;6.30;84.60
37158;DHT22;23050;51.776;22.638;2023-03-17T08:16:04;6.60;76.00
37158;DHT22;23050;51.776;22.638;2023-03-17T08:18:31;6.80;58.20
37158;DHT22;23050;51.776;22.638;2023-03-17T08:20:56;7.60;11.40
37158;DHT22;23050;51.776;22.638;2023-03-17T08:23:23;8.70;1.00
37158;DHT22;23050;51.776;22.638;2023-03-17T08:25:49;9.30;1.00
37158;DHT22;23050;51.776;22.638;2023-03-17T08:28:15;9.80;1.00
37158;DHT22;23050;51.776;22.638;2023-03-17T08:30:42;9.50;1.00
37158;DHT22;23050;51.776;22.638;2023-03-17T08:33:09;10.10;1.00
37158;DHT22;23050;51.776;22.638;2023-03-17T08:35:35;11.10;1.00
37158;DHT22;23050;51.776;22.638;2023-03-17T08:38:02;11.40;1.00
37158;DHT22;23050;51.776;22.638;2023-03-17T08:40:28;11.50;1.00
37158;DHT22;23050;51.776;22.638;2023-03-17T08:42:53;11.00;1.00
37158;DHT22;23050;51.776;22.638;2023-03-17T08:45:19;11.00;1.00
37158;DHT22;23050;51.776;22.638;2023-03-17T08:47:45;10.90;1.00
37158;DHT22;23050;51.776;22.638;2023-03-17T08:50:16;11.60;1.00
37158;DHT22;23050;51.776;22.638;2023-03-17T08:52:43;11.60;1.00
37158;DHT22;23050;51.776;22.638;2023-03-17T08:55:12;11.20;1.00
37158;DHT22;23050;51.776;22.638;2023-03-17T08:57:37;11.10;1.00
37158;DHT22;23050;51.776;22.638;2023-03-17T09:00:04;11.10;1.00
37158;DHT22;23050;51.776;22.638;2023-03-17T09:02:40;11.00;1.00
37158;DHT22;23050;51.776;22.638;2023-03-17T09:05:09;10.10;1.00
37158;DHT22;23050;51.776;22.638;2023-03-17T09:07:35;10.10;1.00
37158;DHT22;23050;51.776;22.638;2023-03-17T09:10:02;10.30;1.00
37158;DHT22;23050;51.776;22.638;2023-03-17T09:12:28;11.00;1.00
37158;DHT22;23050;51.776;22.638;2023-03-17T09:14:54;11.70;1.00
37158;DHT22;23050;51.776;22.638;2023-03-17T09:17:21;11.40;1.00
37158;DHT22;23050;51.776;22.638;2023-03-17T09:19:47;11.50;1.00
37158;DHT22;23050;51.776;22.638;2023-03-17T09:22:14;11.40;1.00
37158;DHT22;23050;51.776;22.638;2023-03-17T09:24:40;11.10;1.00
37158;DHT22;23050;51.776;22.638;2023-03-17T09:27:06;10.90;1.00
37158;DHT22;23050;51.776;22.638;2023-03-17T09:29:32;11.00;1.00
37158;DHT22;23050;51.776;22.638;2023-03-17T09:31:58;11.20;1.00
37158;DHT22;23050;51.776;22.638;2023-03-17T09:34:25;11.30;1.00
37158;DHT22;23050;51.776;22.638;2023-03-17T09:36:52;11.40;1.00
37158;DHT22;23050;51.776;22.638;2023-03-17T09:39:18;11.00;1.00
37158;DHT22;23050;51.776;22.638;2023-03-17T09:42:14;11.30;1.00
37158;DHT22;23050;51.776;22.638;2023-03-17T09:50:18;10.00;1.00
37158;DHT22;23050;51.776;22.638;2023-03-17T09:52:46;10.40;1.00
37158;DHT22;23050;51.776;22.638;2023-03-17T09:55:21;10.60;1.00
37158;DHT22;23050;51.776;22.638;2023-03-17T09:57:50;11.10;1.00
37158;DHT22;23050;51.776;22.638;2023-03-17T10:00:18;11.10;1.00
37158;DHT22;23050;51.776;22.638;2023-03-17T10:02:47;11.30;1.00
37158;DHT22;23050;51.776;22.638;2023-03-17T10:13:21;10.70;1.00
37158;DHT22;23050;51.776;22.638;2023-03-17T10:15:57;11.00;1.00
37158;DHT22;23050;51.776;22.638;2023-03-17T10:18:30;10.60;1.00
37158;DHT22;23050;51.776;22.638;2023-03-17T10:21:03;9.70;1.00
37158;DHT22;23050;51.776;22.638;2023-03-17T10:23:32;9.80;1.00
37158;DHT22;23050;51.776;22.638;2023-03-17T10:26:06;10.20;1.00
37158;DHT22;23050;51.776;22.638;2023-03-17T10:28:33;9.60;1.00
37158;DHT22;23050;51.776;22.638;2023-03-17T10:31:38;9.70;1.00
37158;DHT22;23050;51.776;22.638;2023-03-17T10:34:29;10.30;1.00
37158;DHT22;23050;51.776;22.638;2023-03-17T10:37:03;10.60;1.00
37158;DHT22;23050;51.776;22.638;2023-03-17T10:39:29;9.50;1.00
37158;DHT22;23050;51.776;22.638;2023-03-17T10:42:18;9.40;1.00
37158;DHT22;23050;51.776;22.638;2023-03-17T10:44:57;9.90;1.00
37158;DHT22;23050;51.776;22.638;2023-03-17T10:47:34;9.90;1.00
37158;DHT22;23050;51.776;22.638;2023-03-17T10:50:03;10.50;1.00
37158;DHT22;23050;51.776;22.638;2023-03-17T10:52:41;10.90;1.00
37158;DHT22;23050;51.776;22.638;2023-03-17T10:55:10;10.90;1.00
37158;DHT22;23050;51.776;22.638;2023-03-17T10:57:38;11.10;1.00
37158;DHT22;23050;51.776;22.638;2023-03-17T11:00:16;11.10;1.00
37158;DHT22;23050;51.776;22.638;2023-03-17T11:03:26;11.10;1.00
37158;DHT22;23050;51.776;22.638;2023-03-17T11:05:56;11.40;1.00
37158;DHT22;23050;51.776;22.638;2023-03-17T11:08:21;10.90;1.00
37158;DHT22;23050;51.776;22.638;2023-03-17T11:10:53;11.20;1.00
37158;DHT22;23050;51.776;22.638;2023-03-17T11:13:20;10.90;1.00
37158;DHT22;23050;51.776;22.638;2023-03-17T11:16:16;11.00;1.00
37158;DHT22;23050;51.776;22.638;2023-03-17T11:18:44;10.50;1.00
37158;DHT22;23050;51.776;22.638;2023-03-17T11:21:43;10.50;1.00
37158;DHT22;23050;51.776;22.638;2023-03-17T11:24:33;10.00;1.00
37158;DHT22;23050;51.776;22.638;2023-03-17T11:29:52;10.40;1.00
37158;DHT22;23050;51.776;22.638;2023-03-17T11:35:38;10.30;1.00
37158;DHT22;23050;51.776;22.638;2023-03-17T11:41:22;9.80;1.00
37158;DHT22;23050;51.776;22.638;2023-03-17T11:44:08;10.30;1.00
37158;DHT22;23050;51.776;22.638;2023-03-17T11:46:54;10.90;1.00
37158;DHT22;23050;51.776;22.638;2023-03-17T11:49:37;10.60;1.00
37158;DHT22;23050;51.776;22.638;2023-03-17T11:55:14;10.50;1.00
37158;DHT22;23050;51.776;22.638;2023-03-17T11:57:45;10.60;1.00
37158;DHT22;23050;51.776;22.638;2023-03-17T12:00:19;10.50;1.00
37158;DHT22;23050;51.776;22.638;2023-03-17T12:02:50;10.60;1.00
37158;DHT22;23050;51.776;22.638;2023-03-17T12:05:21;10.20;1.00
37158;DHT22;23050;51.776;22.638;2023-03-17T12:08:03;10.30;1.00
37158;DHT22;23050;51.776;22.638;2023-03-17T12:10:43;10.20;1.00
37158;DHT22;23050;51.776;22.638;2023-03-17T12:16:51;10.40;1.00
37158;DHT22;23050;51.776;22.638;2023-03-17T12:19:26;10.60;1.00
37158;DHT22;23050;51.776;22.638;2023-03-17T12:22:01;10.70;1.00
37158;DHT22;23050;51.776;22.638;2023-03-17T12:24:36;10.60;1.00
37158;DHT22;23050;51.776;22.638;2023-03-17T12:29:42;11.10;1.00
37158;DHT22;23050;51.776;22.638;2023-03-17T12:32:36;11.00;1.00
37158;DHT22;23050;51.776;22.638;2023-03-17T12:35:28;10.90;1.00
37158;DHT22;23050;51.776;22.638;2023-03-17T12:37:55;10.30;1.00
37158;DHT22;23050;51.776;22.638;2023-03-17T12:40:26;10.10;1.00
37158;DHT22;23050;51.776;22.638;2023-03-17T12:43:39;10.30;1.00
37158;DHT22;23050;51.776;22.638;2023-03-17T12:46:39;10.40;1.00
37158;DHT22;23050;51.776;22.638;2023-03-17T12:49:28;10.50;1.00
37158;DHT22;23050;51.776;22.638;2023-03-17T12:54:37;10.60;1.00
37158;DHT22;23050;51.776;22.638;2023-03-17T12:59:35;9.90;1.00
37158;DHT22;23050;51.776;22.638;2023-03-17T13:04:51;10.00;1.00
37158;DHT22;23050;51.776;22.638;2023-03-17T13:07:37;10.40;1.00
37158;DHT22;23050;51.776;22.638;2023-03-17T13:10:34;10.60;1.00
37158;DHT22;23050;51.776;22.638;2023-03-17T13:13:12;10.40;1.00
37158;DHT22;23050;51.776;22.638;2023-03-17T13:23:46;10.60;1.00
37158;DHT22;23050;51.776;22.638;2023-03-17T13:46:37;10.30;1.00
37158;DHT22;23050;51.776;22.638;2023-03-17T13:56:53;10.30;1.00
37158;DHT22;23050;51.776;22.638;2023-03-17T14:02:05;10.10;1.00
37158;DHT22;23050;51.776;22.638;2023-03-17T14:04:56;9.70;1.00
37158;DHT22;23050;51.776;22.638;2023-03-17T14:07:27;10.00;1.00
37158;DHT22;23050;51.776;22.638;2023-03-17T14:09:58;9.80;1.00
37158;DHT22;23050;51.776;22.638;2023-03-17T14:12:31;9.80;1.00
37158;DHT22;23050;51.776;22.638;2023-03-17T14:15:16;9.80;1.00
37158;DHT22;23050;51.776;22.638;2023-03-17T14:17:52;10.00;1.00
37158;DHT22;23050;51.776;22.638;2023-03-17T14:20:21;10.10;1.00
37158;DHT22;23050;51.776;22.638;2023-03-17T14:22:56;10.00;1.00
37158;DHT22;23050;51.776;22.638;2023-03-17T14:25:25;9.80;1.00
37158;DHT22;23050;51.776;22.638;2023-03-17T14:27:53;9.70;1.00
37158;DHT22;23050;51.776;22.638;2023-03-17T14:30:29;9.50;1.00
37158;DHT22;23050;51.776;22.638;2023-03-17T14:35:38;9.10;1.00
37158;DHT22;23050;51.776;22.638;2023-03-17T14:38:26;9.10;1.00
37158;DHT22;23050;51.776;22.638;2023-03-17T14:41:14;9.20;1.00
37158;DHT22;23050;51.776;22.638;2023-03-17T14:43:41;9.00;1.00
37158;DHT22;23050;51.776;22.638;2023-03-17T14:46:25;8.90;1.00
37158;DHT22;23050;51.776;22.638;2023-03-17T14:49:00;8.70;1.00
37158;DHT22;23050;51.776;22.638;2023-03-17T14:51:29;8.60;1.00
37158;DHT22;23050;51.776;22.638;2023-03-17T14:54:00;8.50;1.00
37158;DHT22;23050;51.776;22.638;2023-03-17T14:56:32;8.50;1.00
37158;DHT22;23050;51.776;22.638;2023-03-17T14:59:29;8.70;1.00
37158;DHT22;23050;51.776;22.638;2023-03-17T15:01:59;8.90;1.00
37158;DHT22;23050;51.776;22.638;2023-03-17T15:04:32;8.80;1.00
37158;DHT22;23050;51.776;22.638;2023-03-17T15:07:01;8.60;1.00
37158;DHT22;23050;51.776;22.638;2023-03-17T15:12:20;8.30;1.00
37158;DHT22;23050;51.776;22.638;2023-03-17T15:14:44;8.30;1.00
37158;DHT22;23050;51.776;22.638;2023-03-17T15:17:17;8.20;1.00
37158;DHT22;23050;51.776;22.638;2023-03-17T15:19:45;8.30;1.00
37158;DHT22;23050;51.776;22.638;2023-03-17T15:22:25;8.30;1.00
37158;DHT22;23050;51.776;22.638;2023-03-17T15:27:29;8.30;1.00
37158;DHT22;23050;51.776;22.638;2023-03-17T15:29:56;8.30;1.00
37158;DHT22;23050;51.776;22.638;2023-03-17T15:32:23;8.20;1.00
37158;DHT22;23050;51.776;22.638;2023-03-17T15:34:52;8.20;1.00
37158;DHT22;23050;51.776;22.638;2023-03-17T15:37:27;8.10;1.00
37158;DHT22;23050;51.776;22.638;2023-03-17T15:39:54;8.00;1.00
37158;DHT22;23050;51.776;22.638;2023-03-17T15:42:27;8.00;1.00
37158;DHT22;23050;51.776;22.638;2023-03-17T15:44:53;7.90;1.00
37158;DHT22;23050;51.776;22.638;2023-03-17T15:47:21;7.80;1.00
37158;DHT22;23050;51.776;22.638;2023-03-17T15:49:48;7.70;1.00
37158;DHT22;23050;51.776;22.638;2023-03-17T15:52:20;7.70;1.00
37158;DHT22;23050;51.776;22.638;2023-03-17T15:54:47;7.70;1.00
37158;DHT22;23050;51.776;22.638;2023-03-17T15:57:13;7.70;1.00
37158;DHT22;23050;51.776;22.638;2023-03-17T15:59:39;7.70;1.00
37158;DHT22;23050;51.776;22.638;2023-03-17T16:02:30;7.50;1.00
37158;DHT22;23050;51.776;22.638;2023-03-17T16:04:57;7.50;1.00
37158;DHT22;23050;51.776;22.638;2023-03-17T16:07:24;7.40;1.00
37158;DHT22;23050;51.776;22.638;2023-03-17T16:09:50;7.40;1.00
37158;DHT22;23050;51.776;22.638;2023-03-17T16:12:16;7.30;1.00
37158;DHT22;23050;51.776;22.638;2023-03-17T16:14:42;7.20;1.00
37158;DHT22;23050;51.776;22.638;2023-03-17T16:17:25;7.20;1.00
37158;DHT22;23050;51.776;22.638;2023-03-17T16:19:53;7.20;1.00
37158;DHT22;23050;51.776;22.638;2023-03-17T16:22:40;7.00;1.00
37158;DHT22;23050;51.776;22.638;2023-03-17T16:27:42;6.80;1.00
37158;DHT22;23050;51.776;22.638;2023-03-17T16:30:14;6.80;1.00
37158;DHT22;23050;51.776;22.638;2023-03-17T16:32:40;6.70;1.00
37158;DHT22;23050;51.776;22.638;2023-03-17T16:35:13;6.70;1.00
37158;DHT22;23050;51.776;22.638;2023-03-17T16:37:39;6.60;1.00
37158;DHT22;23050;51.776;22.638;2023-03-17T16:40:21;6.60;1.00
37158;DHT22;23050;51.776;22.638;2023-03-17T16:42:48;6.50;1.00
37158;DHT22;23050;51.776;22.638;2023-03-17T16:45:26;6.40;1.00
37158;DHT22;23050;51.776;22.638;2023-03-17T16:47:53;6.40;1.00
37158;DHT22;23050;51.776;22.638;2023-03-17T16:50:22;6.30;1.00
37158;DHT22;23050;51.776;22.638;2023-03-17T16:52:47;6.30;1.00
37158;DHT22;23050;51.776;22.638;2023-03-17T16:55:16;6.20;1.00
37158;DHT22;23050;51.776;22.638;2023-03-17T16:57:45;6.10;1.00
37158;DHT22;23050;51.776;22.638;2023-03-17T17:00:25;6.10;1.00
37158;DHT22;23050;51.776;22.638;2023-03-17T17:02:52;6.00;1.00
37158;DHT22;23050;51.776;22.638;2023-03-17T17:05:20;6.00;1.00
37158;DHT22;23050;51.776;22.638;2023-03-17T17:07:47;5.90;1.00
37158;DHT22;23050;51.776;22.638;2023-03-17T17:10:15;5.80;1.00
37158;DHT22;23050;51.776;22.638;2023-03-17T17:12:41;5.70;1.00
37158;DHT22;23050;51.776;22.638;2023-03-17T17:15:08;5.70;1.00
37158;DHT22;23050;51.776;22.638;2023-03-17T17:17:36;5.70;1.00